AirNav   Everest Fuels
 
 1058 users online  

79NE Cambridge Memorial Hospital Heliport
Cambridge, Nebraska, USA

GOING TO CAMBRIDGE?


FAA INFORMATION EFFECTIVE 21 MAY 2020

Location

FAA Identifier: 79NE
Lat/Long: 40-16-51.2600N 100-10-54.1600W
40-16.854333N 100-10.902667W
40.2809056,-100.1817111
(estimated)
Elevation: 2191 ft. / 668 m (estimated)
Variation: 09E (1985)
Time zone: UTC -5 (UTC -6 during Standard Time)
Zip code: 69022

Heliport Operations

Heliport use: Private use, MEDICAL.
Activation date: 02/1987
Control tower: no
ARTCC: DENVER CENTER
FSS: COLUMBUS FLIGHT SERVICE STATION
Attendance: UNATNDD
Segmented circle: no

Heliport Communications

WX ASOS at MCK (19 nm W): 119.025 (308-345-1193)

Nearby radio navigation aids

VOR radial/distance  VOR name  Freq  Var
MCKr068/19.5MC COOK VOR/DME115.3008E
HCTr096/35.5HAYES CENTER VORTAC117.7011E
OZBr184/(36.3)COZAD VOR109.0009E

 
NDB name  Hdg/Dist  Freq  Var  ID
HARRY STRUNK213/1.838905ECSB -.-. ... -...
NORTON324/28.823008ENRN -. .-. -.
OBERLIN025/31.634106EOIN --- .. -.

Heliport Services

Runway Information

Helipad H1

Dimensions: 40 x 40 ft. / 12 x 12 m
Surface: concrete
Latitude: 40-16.854333N
Longitude: 100-10.902667W
Elevation: 2191.0 ft.
Traffic pattern: leftleft

Heliport Ownership and Management from official FAA records

Ownership: Privately-owned
Owner: CAMBRIDGE MEMORIAL HOSPITAL
WEST HIGHWAYS 6 & 34
CAMBRIDGE, NE 69022
Phone 308-697-3329
Manager: MARK HARPST
WEST HIGHWAYS 6 & 34
CAMBRIDGE, NE 69022
Phone (308) 697-1129

Additional Remarks

A52-H1 18' BUILDING 80' W; 14' BUILDING 60' W; 45' TREES 84' N.
FOR CD CTC DENVER ARTCC AT 303-651-4257.

Instrument Procedures

There are no published instrument procedures at 79NE.

Some nearby airports with instrument procedures:

KCSB - Cambridge Municipal Airport (2 nm NE)
KMCK - Mc Cook Ben Nelson Regional Airport (19 nm W)
47V - Curtis Municipal Airport (25 nm NW)
KNRN - Norton Municipal Airport (29 nm SE)
KOIN - Oberlin Municipal Airport (31 nm SW)
 
Loc | Ops | Rwys | IFR | FBO | Links
Com | Nav | Svcs | Stats | Notes

AirBoss

 
Area around 79NE (Cambridge Memorial Hospital Heliport)
 
Road maps at: MapQuest Bing Google
 
Aerial photo
No photo
 
Sectional chart

 
Airport distance calculator
Flying to Cambridge Memorial Hospital Heliport? Find the distance to fly.

From to 79NE

Sunrise and sunset
Times for 05-Jun-2020
 Local
(UTC-5)
 Zulu
(UTC)
Morning civil twilight05:4010:40
Sunrise06:1211:12
Sunset21:0602:06
Evening civil twilight21:3902:39

Current date and time
Zulu (UTC)  05-Jun-2020 22:30:46
Local (UTC-5)  05-Jun-2020 17:30:46
 
METAR
KMCK 
19nm W 
052153Z AUTO 10007KT 10SM CLR 34/15 A2989 RMK AO2 SLP092 T03390150
KOIN 
31nm SW 
052155Z AUTO 12008KT 10SM CLR 34/17 A2994 RMK AO1 T03400166
KLXN 
36nm NE 
052215Z AUTO 14009KT 10SM CLR 33/17 A2991 RMK AO2 T03250172
TAF
KMCK 
19nm W 
051739Z 0518/0618 VRB06KT P6SM SKC FM060000 11012KT P6SM SCT250 FM061500 17015G25KT P6SM SCT120 FM061745 19025G35KT P6SM SCT120
NOTAMs
Click for the latest NOTAMs
NOTAMs are issued by the DoD/FAA and will open in a separate window not controlled by AirNav.

 

 
 

Would you like to see your business listed on this page?

 If your business provides an interesting product or service to pilots, flight crews, aircraft, or users of the Cambridge Memorial Hospital Heliport, you should consider listing it here.  To start the listing process, click on the button below
 
Add a business
 

Other Pages about Cambridge Memorial Hospital Heliport

Update a link
 
Copyright © AirNav, LLC. All rights reserved. Privacy Policy  Contact